Time;durP1;ratioP1;P1;durP2;ratioP2;P2;SDS_P1;SDS_P2;PMS_P1;PMS_P2;Temp;Humidity;BMP_temperature;BMP_pressure;BME280_temperature;BME280_humidity;BME280_pressure;Samples;Min_cycle;Max_cycle;Signal;HPM_P1;HPM_P2
2022/09/26 00:01:41;;;;;;;4.53;2.30;;;;;;;17.21;56.04;100461.53;5050503;27;99557;-68
2022/09/26 00:04:10;;;;;;;4.22;2.55;;;;;;;17.31;55.85;100462.66;5049544;27;101816;-67
2022/09/26 00:06:37;;;;;;;4.90;2.28;;;;;;;17.34;55.59;100467.78;5050619;27;96945;-67
2022/09/26 00:09:04;;;;;;;8.18;2.22;;;;;;;17.34;55.65;100470.44;5052817;27;96812;-68
2022/09/26 00:11:32;;;;;;;4.18;2.03;;;;;;;17.52;55.10;100459.34;5049789;27;98877;-68
2022/09/26 00:14:01;;;;;;;4.95;2.10;;;;;;;17.41;55.48;100458.38;5051008;27;99084;-67
2022/09/26 00:16:28;;;;;;;6.38;2.00;;;;;;;17.25;55.87;100455.06;5045042;27;98523;-67
2022/09/26 00:18:57;;;;;;;5.50;1.92;;;;;;;17.34;55.84;100455.28;5049851;27;96833;-68
2022/09/26 00:21:25;;;;;;;4.20;1.90;;;;;;;17.57;54.92;100444.84;5051736;27;99350;-67
2022/09/26 00:23:54;;;;;;;4.78;2.00;;;;;;;17.40;55.61;100451.31;5048895;27;98979;-68
2022/09/26 00:26:24;;;;;;;6.90;1.90;;;;;;;17.41;55.48;100447.69;5051108;27;96850;-68
2022/09/26 00:28:51;;;;;;;5.63;2.17;;;;;;;17.51;55.18;100441.66;5049642;27;96791;-68
2022/09/26 00:31:20;;;;;;;3.28;1.60;;;;;;;17.47;55.13;100452.63;5046547;27;99814;-67
2022/09/26 00:33:48;;;;;;;6.43;1.80;;;;;;;17.51;55.17;100440.78;5051186;27;97696;-68
2022/09/26 00:36:22;;;;;;;5.85;2.00;;;;;;;17.38;55.40;100442.59;5042691;27;97725;-66
2022/09/26 00:38:49;;;;;;;5.57;2.28;;;;;;;17.17;56.22;100450.22;5049436;27;96826;-68
2022/09/26 00:41:16;;;;;;;5.45;2.70;;;;;;;16.87;57.23;100447.78;5041982;27;98908;-67
2022/09/26 00:43:46;;;;;;;7.22;2.35;;;;;;;16.96;56.97;100447.19;5047421;27;99093;-67
2022/09/26 00:46:22;;;;;;;7.72;2.42;;;;;;;17.17;56.46;100441.38;5048231;27;96817;-67
2022/09/26 00:48:50;;;;;;;;;;;;;;;17.28;56.25;100436.16;5048724;27;97270;-66
2022/09/26 00:51:17;;;;;;;5.20;2.25;;;;;;;17.02;56.78;100437.91;5046634;27;99329;-67
2022/09/26 00:53:48;;;;;;;8.65;2.00;;;;;;;17.13;56.51;100443.41;5049234;27;98905;-67
2022/09/26 00:56:18;;;;;;;4.75;2.28;;;;;;;16.92;57.00;100443.03;5053766;27;98856;-67
2022/09/26 00:58:50;;;;;;;9.48;2.63;;;;;;;17.17;56.57;100438.69;5050319;27;97013;-67
2022/09/26 01:01:17;;;;;;;5.65;2.08;;;;;;;17.33;55.75;100429.53;5052961;27;99277;-68
2022/09/26 01:03:46;;;;;;;7.75;2.42;;;;;;;17.56;55.21;100427.97;5050196;27;99028;-67
2022/09/26 01:06:14;;;;;;;5.97;2.60;;;;;;;17.13;56.36;100425.53;5048409;27;98427;-66
2022/09/26 01:08:44;;;;;;;4.93;2.13;;;;;;;17.20;56.21;100425.16;5055381;27;96949;-67
2022/09/26 01:11:14;;;;;;;7.20;2.80;;;;;;;17.28;55.93;100422.78;5053927;27;99162;-67
2022/09/26 01:13:43;;;;;;;5.45;2.80;;;;;;;17.31;55.76;100425.28;5054099;27;98577;-68
2022/09/26 01:16:11;;;;;;;4.03;2.88;;;;;;;17.13;56.05;100420.19;5051358;27;96870;-69
2022/09/26 01:18:38;;;;;;;6.95;3.33;;;;;;;17.03;56.77;100411.13;5054193;27;97129;-67
2022/09/26 01:21:31;;;;;;;14.00;3.30;;;;;;;17.02;56.59;100420.06;5051867;27;99168;-68
2022/09/26 01:24:30;;;;;;;5.35;2.47;;;;;;;17.07;56.53;100412.59;5051662;27;100951;-69
2022/09/26 01:27:28;;;;;;;6.45;3.13;;;;;;;17.38;55.65;100411.41;5052552;27;97208;-67
2022/09/26 01:30:12;;;;;;;4.78;2.55;;;;;;;17.34;55.96;100409.03;5048021;27;96905;-68
2022/09/26 01:33:08;;;;;;;7.22;2.90;;;;;;;17.30;55.90;100407.53;5048021;27;97846;-68
2022/09/26 01:36:08;;;;;;;7.43;2.55;;;;;;;17.55;55.17;100402.19;5049700;27;98456;-67
2022/09/26 01:38:43;;;;;;;6.70;2.30;;;;;;;17.46;55.04;100397.47;5046398;27;96950;-68
2022/09/26 01:41:28;;;;;;;5.63;2.22;;;;;;;17.37;55.37;100399.00;5053702;27;96912;-68
2022/09/26 01:44:03;;;;;;;6.43;2.20;;;;;;;17.46;55.17;100390.31;5053919;27;97845;-68
2022/09/26 01:46:37;;;;;;;4.38;2.00;;;;;;;17.48;54.72;100388.41;5051293;27;98843;-68
2022/09/26 01:49:12;;;;;;;4.80;2.35;;;;;;;17.60;54.65;100388.50;5051932;27;96935;-67
2022/09/26 01:51:48;;;;;;;4.35;2.10;;;;;;;17.64;54.35;100380.22;5054472;27;97230;-68
2022/09/26 01:54:19;;;;;;;4.60;2.05;;;;;;;17.67;54.39;100382.66;5049855;27;97767;-67
2022/09/26 01:56:48;;;;;;;6.57;2.00;;;;;;;17.71;54.27;100386.00;5051482;27;98821;-67
2022/09/26 01:59:22;;;;;;;7.20;1.75;;;;;;;17.56;54.41;100387.88;5052389;27;96811;-67
2022/09/26 02:01:52;;;;;;;6.50;2.45;;;;;;;17.50;54.73;100381.16;5051627;27;96819;-66
2022/09/26 02:04:24;;;;;;;7.70;2.05;;;;;;;17.40;55.20;100382.75;5039606;27;98950;-67
2022/09/26 02:06:54;;;;;;;7.10;2.13;;;;;;;17.66;54.49;100380.09;5051709;27;98502;-67
2022/09/26 02:09:26;;;;;;;4.13;1.92;;;;;;;17.40;54.91;100384.56;5053116;27;96704;-67
2022/09/26 02:11:59;;;;;;;6.53;2.10;;;;;;;17.70;54.20;100377.13;5053850;27;96796;-68
2022/09/26 02:14:31;;;;;;;8.23;1.92;;;;;;;17.43;54.69;100379.00;5051283;27;99143;-68
2022/09/26 02:17:05;;;;;;;5.68;2.10;;;;;;;17.73;53.81;100363.53;5049923;27;101044;-67
2022/09/26 02:19:36;;;;;;;8.27;2.25;;;;;;;17.53;54.22;100366.72;5052617;27;96965;-67
2022/09/26 02:22:03;;;;;;;7.07;2.30;;;;;;;17.54;54.38;100361.28;5054234;27;96833;-67
2022/09/26 02:24:29;;;;;;;9.45;1.90;;;;;;;17.16;55.12;100363.09;5048408;27;99221;-67
2022/09/26 02:27:00;;;;;;;5.43;1.83;;;;;;;17.11;55.51;100360.75;5052036;27;99273;-66
2022/09/26 02:29:26;;;;;;;7.22;2.42;;;;;;;17.46;54.73;100352.94;5046251;27;96916;-66
2022/09/26 02:31:57;;;;;;;7.90;2.55;;;;;;;17.37;54.63;100355.41;5052791;27;96857;-67
2022/09/26 02:34:25;;;;;;;4.07;1.90;;;;;;;17.41;54.57;100356.88;5045279;27;100133;-67
2022/09/26 02:36:54;;;;;;;10.52;2.30;;;;;;;17.26;55.14;100350.81;5051470;27;99370;-67
2022/09/26 02:39:21;;;;;;;5.03;1.98;;;;;;;17.37;54.96;100358.09;5048147;27;96721;-68
2022/09/26 02:41:50;;;;;;;4.38;1.73;;;;;;;17.42;54.50;100353.25;5052705;27;97021;-68
2022/09/26 02:44:33;;;;;;;8.02;2.08;;;;;;;17.34;54.73;100347.59;5053030;27;98959;-67
2022/09/26 02:47:34;;;;;;;6.80;2.55;;;;;;;17.23;54.55;100336.81;5051607;27;98897;-67
2022/09/26 02:50:16;;;;;;;9.95;2.40;;;;;;;17.21;54.74;100339.59;5049126;27;99616;-67
2022/09/26 02:52:55;;;;;;;4.72;2.00;;;;;;;17.34;54.77;100340.44;5049300;27;96811;-67
2022/09/26 02:55:26;;;;;;;3.50;2.35;;;;;;;17.35;54.67;100330.63;5044922;27;98921;-68
2022/09/26 02:58:02;;;;;;;5.50;1.90;;;;;;;17.36;54.64;100332.34;5052418;27;97590;-68
2022/09/26 03:00:38;;;;;;;5.68;2.28;;;;;;;17.52;54.24;100327.63;5049140;27;98604;-67
2022/09/26 03:03:13;;;;;;;6.05;1.92;;;;;;;17.41;54.42;100324.84;5052884;27;97094;-67
2022/09/26 03:05:45;;;;;;;6.60;2.30;;;;;;;17.24;55.10;100338.53;5041889;27;98986;-68
2022/09/26 03:08:20;;;;;;;6.50;2.50;;;;;;;17.40;54.54;100333.81;5051496;27;98750;-68
2022/09/26 03:10:48;;;;;;;6.13;2.20;;;;;;;17.17;55.09;100326.56;5048253;27;96753;-67
2022/09/26 03:13:18;;;;;;;5.22;1.80;;;;;;;17.13;55.31;100326.75;5047479;27;96922;-66
2022/09/26 03:15:58;;;;;;;6.38;2.00;;;;;;;17.23;54.86;100326.13;5052728;27;99076;-68
2022/09/26 03:18:29;;;;;;;5.53;2.38;;;;;;;17.27;54.87;100323.13;5050868;27;98873;-68
2022/09/26 03:20:58;;;;;;;8.98;2.13;;;;;;;17.16;55.14;100322.19;5049255;27;97176;-67
2022/09/26 03:23:26;;;;;;;5.22;2.08;;;;;;;17.05;55.17;100323.78;5052502;27;97094;-68
2022/09/26 03:26:03;;;;;;;3.50;2.00;;;;;;;17.18;55.08;100323.78;5050859;27;99512;-68
2022/09/26 03:28:29;;;;;;;6.72;1.83;;;;;;;17.23;55.05;100320.78;5048745;27;98786;-68
2022/09/26 03:30:55;;;;;;;5.13;2.22;;;;;;;17.10;55.59;100320.78;5052630;27;96801;-68
2022/09/26 03:33:22;;;;;;;7.32;2.05;;;;;;;17.30;54.83;100324.75;5051418;27;96834;-67
2022/09/26 03:35:48;;;;;;;8.45;2.05;;;;;;;17.43;54.17;100318.44;5049251;27;99403;-68
2022/09/26 03:38:19;;;;;;;10.57;2.20;;;;;;;17.31;54.73;100313.97;5046758;27;97535;-67
2022/09/26 03:40:46;;;;;;;6.75;2.13;;;;;;;17.10;55.21;100310.13;5050064;27;96707;-68
2022/09/26 03:43:13;;;;;;;6.78;2.30;;;;;;;17.07;55.17;100305.84;5051860;27;97071;-67
2022/09/26 03:45:39;;;;;;;6.53;1.90;;;;;;;17.18;55.10;100301.56;5047729;27;99132;-67
2022/09/26 03:48:07;;;;;;;5.07;1.85;;;;;;;17.28;54.79;100305.31;5050263;27;98903;-68
2022/09/26 03:50:35;;;;;;;6.68;2.28;;;;;;;17.01;55.41;100298.25;5051661;27;96965;-68
2022/09/26 03:53:01;;;;;;;6.15;2.13;;;;;;;16.85;55.47;100294.94;5048056;27;96885;-67
2022/09/26 03:55:31;;;;;;;7.80;2.17;;;;;;;16.98;55.42;100295.81;5044714;27;97987;-68
2022/09/26 03:57:59;;;;;;;7.50;1.80;;;;;;;16.99;55.57;100302.88;5049987;27;100638;-68
2022/09/26 04:00:26;;;;;;;8.18;2.55;;;;;;;17.12;55.19;100294.84;5052824;27;96718;-67
2022/09/26 04:02:52;;;;;;;5.13;2.00;;;;;;;17.06;55.25;100295.28;5049833;27;97221;-67
2022/09/26 04:05:22;;;;;;;8.50;2.20;;;;;;;17.05;55.31;100282.91;5050742;27;99239;-70
2022/09/26 04:07:50;;;;;;;5.32;2.08;;;;;;;17.13;55.06;100292.06;5045570;27;99025;-67
2022/09/26 04:10:17;;;;;;;3.17;2.20;;;;;;;17.14;55.10;100282.22;5048475;27;97202;-68
2022/09/26 04:12:45;;;;;;;7.20;1.88;;;;;;;17.11;55.10;100275.31;5052889;27;96806;-68
2022/09/26 04:15:13;;;;;;;5.63;2.42;;;;;;;17.24;54.75;100277.97;5049425;27;98906;-68
2022/09/26 04:17:39;;;;;;;4.35;1.85;;;;;;;17.23;54.86;100280.75;5046046;27;98804;-67
2022/09/26 04:20:06;;;;;;;9.90;4.43;;;;;;;17.04;55.39;100283.84;5049004;27;97077;-67
2022/09/26 04:22:36;;;;;;;5.80;2.67;;;;;;;16.99;55.34;100276.16;5051930;27;96887;-68
2022/09/26 04:25:03;;;;;;;7.43;2.00;;;;;;;16.89;56.04;100267.06;5046918;27;98965;-67
2022/09/26 04:27:29;;;;;;;8.00;2.50;;;;;;;16.91;55.85;100273.16;5047394;27;101906;-67
2022/09/26 04:29:57;;;;;;;3.42;1.83;;;;;;;16.98;55.56;100263.78;5048685;27;96918;-68
2022/09/26 04:32:23;;;;;;;2.63;2.10;;;;;;;16.95;55.68;100269.31;5048655;27;96859;-68
2022/09/26 04:34:50;;;;;;;9.52;2.65;;;;;;;16.71;55.95;100263.00;5046560;27;98959;-67
2022/09/26 04:37:19;;;;;;;9.10;2.20;;;;;;;16.77;56.11;100259.91;5051726;27;97428;-67
2022/09/26 04:39:46;;;;;;;6.05;1.83;;;;;;;16.78;56.20;100266.13;5048369;27;98453;-67
2022/09/26 04:42:12;;;;;;;4.90;2.17;;;;;;;16.60;56.53;100268.22;5044379;27;97239;-67
2022/09/26 04:44:39;;;;;;;5.47;2.10;;;;;;;16.65;56.23;100266.09;5050143;27;99008;-68
2022/09/26 04:47:07;;;;;;;5.20;1.83;;;;;;;16.61;56.50;100267.25;5051214;27;97984;-68
2022/09/26 04:49:33;;;;;;;4.78;1.80;;;;;;;16.54;56.60;100263.28;5051784;27;97347;-68
2022/09/26 04:52:00;;;;;;;12.20;3.35;;;;;;;16.49;56.48;100265.38;5052239;27;96801;-68
2022/09/26 04:54:26;;;;;;;24.48;10.45;;;;;;;16.60;56.48;100262.91;5050111;27;99796;-68
2022/09/26 04:56:52;;;;;;;8.30;2.83;;;;;;;16.57;56.76;100268.38;5050856;27;98914;-68
2022/09/26 04:59:19;;;;;;;6.70;2.15;;;;;;;16.49;56.99;100258.25;5049594;27;96926;-67
2022/09/26 05:01:46;;;;;;;9.13;2.60;;;;;;;16.35;57.44;100263.63;5045784;27;96966;-67
2022/09/26 05:04:14;;;;;;;10.10;2.50;;;;;;;16.42;57.19;100259.59;5051281;27;99397;-68
2022/09/26 05:06:40;;;;;;;5.97;2.35;;;;;;;16.41;57.19;100259.72;5043522;27;99158;-68
2022/09/26 05:09:07;;;;;;;8.70;2.60;;;;;;;16.39;57.27;100258.97;5050331;27;98402;-67
2022/09/26 05:11:35;;;;;;;7.28;2.50;;;;;;;16.37;57.56;100260.88;5045147;27;96930;-69
2022/09/26 05:14:03;;;;;;;7.50;2.22;;;;;;;16.48;57.12;100253.00;5051222;27;99481;-67
2022/09/26 05:16:30;;;;;;;5.90;2.78;;;;;;;16.47;57.38;100251.31;5048806;27;99344;-69
2022/09/26 05:18:56;;;;;;;7.10;2.63;;;;;;;16.40;57.65;100256.22;5050136;27;97085;-68
2022/09/26 05:21:24;;;;;;;8.88;2.35;;;;;;;16.45;57.54;100248.75;5049847;27;96816;-67
2022/09/26 05:26:42;;;;;;;7.90;2.65;;;;;;;16.37;57.84;100260.88;5044798;27;96957;-69
2022/09/26 05:29:10;;;;;;;15.07;3.40;;;;;;;16.53;57.44;100253.56;5050185;27;96731;-69
2022/09/26 05:31:38;;;;;;;5.82;2.70;;;;;;;16.61;57.17;100260.09;5047419;27;96890;-69
2022/09/26 05:34:06;;;;;;;9.52;2.80;;;;;;;16.37;58.08;100252.88;5051245;27;99270;-68
2022/09/26 05:36:34;;;;;;;6.82;2.72;;;;;;;16.43;58.12;100260.47;5053707;27;98903;-68
2022/09/26 05:39:04;;;;;;;9.65;2.70;;;;;;;16.53;57.80;100256.22;5048300;27;98463;-68
2022/09/26 05:41:31;;;;;;;8.55;2.97;;;;;;;16.68;57.23;100249.88;5053143;27;96924;-68
2022/09/26 05:43:58;;;;;;;9.30;3.45;;;;;;;16.57;57.42;100258.56;5052009;27;97843;-68
2022/09/26 05:46:26;;;;;;;10.70;3.35;;;;;;;16.67;57.46;100253.53;5053273;27;99829;-69
2022/09/26 05:48:56;;;;;;;6.03;3.10;;;;;;;16.59;57.76;100255.81;5047778;27;96803;-69
2022/09/26 05:51:23;;;;;;;9.40;3.42;;;;;;;16.98;56.35;100253.09;5049699;27;96831;-68
2022/09/26 05:53:51;;;;;;;7.32;2.90;;;;;;;16.93;56.38;100249.06;5048159;27;98921;-68
2022/09/26 05:56:18;;;;;;;9.10;3.10;;;;;;;16.95;56.39;100252.44;5052873;27;98924;-68
2022/09/26 05:58:45;;;;;;;11.50;2.95;;;;;;;16.88;56.47;100251.16;5048845;27;96872;-70
2022/09/26 06:01:13;;;;;;;8.40;3.22;;;;;;;16.90;56.48;100251.91;5049462;27;97160;-68
2022/09/26 06:03:43;;;;;;;4.57;2.78;;;;;;;16.89;56.44;100256.41;5051424;27;98900;-68
2022/09/26 06:06:11;;;;;;;9.82;3.70;;;;;;;17.23;55.39;100252.22;5048233;27;98767;-70
2022/09/26 06:08:39;;;;;;;8.25;3.83;;;;;;;17.00;56.03;100253.84;5049670;27;96881;-68
2022/09/26 06:11:09;;;;;;;6.78;2.78;;;;;;;16.89;56.06;100248.41;5046954;27;97870;-68
2022/09/26 06:13:36;;;;;;;6.15;2.55;;;;;;;17.23;55.22;100244.22;5053354;27;99157;-68
2022/09/26 06:16:04;;;;;;;6.93;3.03;;;;;;;17.09;55.30;100247.00;5050163;27;98946;-68
2022/09/26 06:18:31;;;;;;;6.00;2.92;;;;;;;17.27;54.88;100245.69;5050345;27;96871;-67
2022/09/26 06:21:02;;;;;;;13.05;4.05;;;;;;;17.16;54.86;100237.59;5052142;27;97437;-67
2022/09/26 06:23:29;;;;;;;7.40;2.78;;;;;;;17.44;54.30;100239.19;5046808;27;101009;-68
2022/09/26 06:25:56;;;;;;;4.35;2.75;;;;;;;17.37;54.03;100248.59;5043675;27;99845;-67
2022/09/26 06:28:23;;;;;;;7.72;3.38;;;;;;;17.47;54.17;100241.59;5049143;27;97293;-67
2022/09/26 06:30:50;;;;;;;4.97;2.92;;;;;;;17.86;52.96;100236.06;5051671;27;98530;-68
2022/09/26 06:33:19;;;;;;;4.38;2.75;;;;;;;17.79;52.61;100229.47;5051398;27;98887;-68
2022/09/26 06:35:46;;;;;;;12.80;3.00;;;;;;;17.91;52.60;100239.28;5050061;27;99199;-68
2022/09/26 06:38:14;;;;;;;3.17;2.40;;;;;;;18.01;52.40;100231.41;5044850;27;98376;-69
2022/09/26 06:40:44;;;;;;;13.02;2.72;;;;;;;18.05;52.08;100224.88;5048936;27;98646;-68
2022/09/26 06:43:10;;;;;;;7.22;2.50;;;;;;;17.87;52.61;100221.75;5042379;27;97724;-68
2022/09/26 06:45:40;;;;;;;7.80;2.60;;;;;;;17.94;52.27;100224.81;5045067;27;98635;-68
2022/09/26 06:48:06;;;;;;;4.13;2.40;;;;;;;18.09;52.32;100215.66;5048316;27;97276;-68
2022/09/26 06:50:32;;;;;;;6.88;2.55;;;;;;;18.21;52.11;100221.91;5042941;27;96843;-68
2022/09/26 06:53:04;;;;;;;8.68;3.10;;;;;;;18.34;51.40;100214.66;5045872;27;101328;-68
2022/09/26 06:55:30;;;;;;;6.13;2.67;;;;;;;18.12;51.74;100214.56;5045099;27;97773;-68
2022/09/26 06:57:57;;;;;;;6.70;2.45;;;;;;;18.30;51.42;100208.72;5049933;27;97816;-68
2022/09/26 07:00:32;;;;;;;6.22;2.67;;;;;;;18.22;51.27;100210.25;5047401;27;96975;-69
2022/09/26 07:03:07;;;;;;;7.15;3.25;;;;;;;18.05;51.47;100208.81;5042493;27;97888;-68
2022/09/26 07:05:34;;;;;;;8.45;3.25;;;;;;;17.86;52.31;100209.34;5052970;27;98734;-67
2022/09/26 07:08:06;;;;;;;8.32;3.33;;;;;;;17.87;52.21;100208.38;5049424;27;97196;-68
2022/09/26 07:10:34;;;;;;;6.35;3.58;;;;;;;17.99;51.96;100208.44;5040079;27;97010;-68
2022/09/26 07:13:03;;;;;;;8.02;3.85;;;;;;;18.15;51.62;100203.66;5047193;27;99333;-68
2022/09/26 07:15:31;;;;;;;8.18;4.10;;;;;;;18.38;51.51;100209.94;5043380;27;99247;-68
2022/09/26 07:18:06;;;;;;;7.82;4.10;;;;;;;18.45;51.34;100205.81;5048605;27;97096;-70
2022/09/26 07:20:36;;;;;;;9.65;4.38;;;;;;;18.39;51.45;100206.28;5045446;27;98560;-69
2022/09/26 07:23:10;;;;;;;7.90;4.40;;;;;;;18.39;51.69;100207.13;5046468;27;98642;-69
2022/09/26 07:25:38;;;;;;;5.65;3.50;;;;;;;18.72;50.77;100198.38;5044399;27;97641;-69
2022/09/26 07:28:10;;;;;;;11.40;4.10;;;;;;;18.94;50.59;100203.75;5046191;27;96837;-70
2022/09/26 07:30:37;;;;;;;9.80;4.38;;;;;;;19.01;50.10;100198.78;5045446;27;96992;-69
2022/09/26 07:33:10;;;;;;;8.98;4.18;;;;;;;18.83;50.61;100197.56;5045558;27;99186;-70
2022/09/26 07:35:43;;;;;;;9.90;3.60;;;;;;;18.74;50.76;100195.56;5045536;27;99153;-69
2022/09/26 07:38:11;;;;;;;7.53;3.13;;;;;;;18.88;50.41;100193.53;5048477;27;96851;-69
2022/09/26 07:40:39;;;;;;;7.45;2.92;;;;;;;18.89;49.43;100189.03;5038080;27;97968;-70
2022/09/26 07:43:06;;;;;;;6.20;2.40;;;;;;;18.91;49.31;100192.41;5046269;27;101567;-69
2022/09/26 07:51:10;;;;;;;6.75;2.22;;;;;;;18.99;47.97;100195.34;5041220;27;97346;-68
2022/09/26 07:53:40;;;;;;;6.78;2.20;;;;;;;19.16;47.55;100194.88;5039450;27;99607;-69
2022/09/26 07:56:11;;;;;;;3.90;2.45;;;;;;;19.43;46.79;100189.13;5048197;27;101239;-69
2022/09/26 07:58:42;;;;;;;7.00;2.65;;;;;;;19.53;46.77;100189.28;5044297;27;97038;-69
2022/09/26 08:01:10;;;;;;;3.55;2.00;;;;;;;19.86;45.41;100191.88;5048772;27;97366;-68
2022/09/26 08:03:38;;;;;;;5.60;1.58;;;;;;;19.71;45.24;100193.13;5033502;27;100737;-67
2022/09/26 08:06:08;;;;;;;4.53;1.92;;;;;;;19.98;45.10;100185.47;5047119;27;97825;-68
2022/09/26 08:08:35;;;;;;;5.95;2.30;;;;;;;19.97;45.26;100194.50;5047563;27;98118;-68
2022/09/26 08:11:02;;;;;;;6.43;1.45;;;;;;;19.86;44.83;100186.50;5047892;27;96817;-69
2022/09/26 08:13:30;;;;;;;6.78;1.70;;;;;;;20.16;43.95;100189.31;5050277;27;98953;-68
2022/09/26 08:16:06;;;;;;;4.35;1.67;;;;;;;20.15;44.14;100187.59;5043103;27;100791;-68
2022/09/26 08:18:37;;;;;;;2.38;1.23;;;;;;;20.14;43.47;100182.38;5042540;27;97152;-67
2022/09/26 08:21:06;;;;;;;10.40;1.90;;;;;;;20.01;43.60;100185.25;5041119;27;97045;-67
2022/09/26 08:23:33;;;;;;;16.00;1.73;;;;;;;20.12;43.70;100170.91;5044193;27;99121;-67
2022/09/26 08:26:02;;;;;;;6.40;1.83;;;;;;;20.37;43.02;100178.63;5036170;27;98882;-68
2022/09/26 08:28:28;;;;;;;6.57;1.67;;;;;;;19.91;43.79;100176.25;5049722;27;97280;-69
2022/09/26 08:30:59;;;;;;;4.88;2.53;;;;;;;20.07;43.68;100176.69;5049111;27;96832;-67
2022/09/26 08:33:27;;;;;;;5.85;1.83;;;;;;;20.15;43.18;100176.88;5049279;27;99069;-69
2022/09/26 08:35:53;;;;;;;4.68;1.63;;;;;;;20.04;42.77;100184.13;5045141;27;97676;-68
2022/09/26 08:38:21;;;;;;;7.35;1.98;;;;;;;20.18;42.98;100176.63;5048534;27;97278;-68
2022/09/26 08:40:58;;;;;;;4.50;1.67;;;;;;;20.33;42.78;100168.28;5046122;27;96833;-67
2022/09/26 08:43:40;;;;;;;3.28;1.90;;;;;;;20.58;42.27;100179.47;5043058;27;98941;-67
2022/09/26 08:49:22;;;;;;;5.68;1.60;;;;;;;20.86;41.48;100166.38;5040918;27;96928;-68
2022/09/26 08:51:52;;;;;;;3.17;1.50;;;;;;;20.69;40.90;100170.50;5046355;27;96965;-68
2022/09/26 08:54:40;;;;;;;9.07;1.48;;;;;;;20.64;39.76;100164.69;5046188;27;98956;-68
2022/09/26 08:57:18;;;;;;;3.47;1.02;;;;;;;20.60;39.92;100156.06;5045918;27;98719;-68
2022/09/26 08:59:48;;;;;;;8.77;1.65;;;;;;;21.00;39.51;100158.78;5049753;27;97294;-68
2022/09/26 09:02:21;;;;;;;2.15;0.82;;;;;;;20.99;38.13;100159.78;5048393;27;97225;-69
2022/09/26 09:04:56;;;;;;;2.75;1.05;;;;;;;21.49;37.83;100154.44;5043872;27;99661;-69
2022/09/26 09:07:26;;;;;;;4.30;1.02;;;;;;;21.21;36.97;100164.13;5046007;27;98922;-68
2022/09/26 09:10:01;;;;;;;2.95;0.90;;;;;;;21.17;37.81;100156.47;5045801;27;97077;-68
2022/09/26 09:12:38;;;;;;;8.83;0.83;;;;;;;21.26;37.62;100143.09;5052663;27;97035;-69
2022/09/26 09:15:27;;;;;;;3.97;0.95;;;;;;;21.28;36.87;100143.78;5046889;27;98825;-68
2022/09/26 09:18:05;;;;;;;2.83;0.80;;;;;;;21.58;36.15;100142.88;5046024;27;98796;-69
2022/09/26 09:20:45;;;;;;;4.47;2.42;;;;;;;21.44;36.67;100129.84;5046167;27;96893;-70
2022/09/26 09:23:24;;;;;;;2.35;0.80;;;;;;;21.42;36.99;100137.16;5048448;27;98105;-67
2022/09/26 09:26:04;;;;;;;4.80;1.13;;;;;;;21.65;36.79;100133.28;5048551;27;99208;-67
2022/09/26 09:28:43;;;;;;;2.67;0.70;;;;;;;21.41;36.89;100135.47;5052077;27;99315;-67
2022/09/26 09:31:12;;;;;;;6.15;1.23;;;;;;;21.47;36.80;100130.38;5047074;27;96716;-69
2022/09/26 09:33:42;;;;;;;5.45;1.10;;;;;;;21.46;37.04;100130.56;5051978;27;97673;-69
2022/09/26 09:36:13;;;;;;;5.70;1.13;;;;;;;21.20;36.89;100126.66;5045862;27;98900;-68
2022/09/26 09:38:44;;;;;;;3.60;0.95;;;;;;;21.42;37.21;100123.72;5048041;27;98948;-68
2022/09/26 09:41:15;;;;;;;4.00;0.95;;;;;;;21.69;36.76;100118.53;5046212;27;97815;-68
2022/09/26 09:43:46;;;;;;;2.58;0.98;;;;;;;21.78;36.28;100123.09;5045886;27;97129;-69
2022/09/26 09:46:17;;;;;;;2.55;0.88;;;;;;;21.45;35.95;100120.78;5050969;27;99252;-69
2022/09/26 09:48:46;;;;;;;1.08;0.50;;;;;;;21.44;35.46;100119.06;5045431;27;99197;-68
2022/09/26 09:51:25;;;;;;;3.92;1.00;;;;;;;21.46;35.30;100112.56;5051407;27;97069;-68
2022/09/26 09:54:11;;;;;;;1.13;0.68;;;;;;;21.31;35.75;100107.75;5045896;27;96814;-67
2022/09/26 09:56:46;;;;;;;3.63;1.05;;;;;;;21.49;36.15;100114.13;5048403;27;98943;-68
2022/09/26 09:59:28;;;;;;;2.15;0.63;;;;;;;21.41;35.93;100103.22;5052240;27;101526;-67
2022/09/26 10:02:10;;;;;;;3.63;1.08;;;;;;;21.50;35.47;100096.16;5047199;27;96889;-68
2022/09/26 10:04:45;;;;;;;4.75;1.00;;;;;;;21.66;35.66;100091.91;5049866;27;96989;-67
2022/09/26 10:07:11;;;;;;;1.65;0.60;;;;;;;21.67;35.59;100087.41;5044952;27;98953;-67
2022/09/26 10:09:43;;;;;;;1.10;0.57;;;;;;;21.64;35.56;100088.53;5045954;27;98873;-67
2022/09/26 10:12:16;;;;;;;3.60;0.60;;;;;;;21.39;35.79;100081.03;5051632;27;97170;-67
2022/09/26 10:14:49;;;;;;;2.42;0.70;;;;;;;21.17;35.78;100081.25;5042123;27;97031;-67
2022/09/26 10:17:19;;;;;;;1.58;0.80;;;;;;;21.24;36.33;100082.41;5048190;27;99214;-68
2022/09/26 10:19:46;;;;;;;11.57;1.77;;;;;;;21.46;36.08;100069.56;5040259;27;98810;-68
2022/09/26 10:22:18;;;;;;;5.25;0.80;;;;;;;21.41;35.83;100070.97;5052748;27;96835;-69
2022/09/26 10:24:49;;;;;;;2.83;0.70;;;;;;;21.36;36.30;100074.09;5050922;27;97137;-68
2022/09/26 10:27:23;;;;;;;2.63;1.00;;;;;;;21.42;36.26;100072.66;5044375;27;99946;-68
2022/09/26 10:29:57;;;;;;;3.95;1.20;;;;;;;21.37;36.68;100064.19;5047932;27;101712;-67
2022/09/26 10:32:25;;;;;;;2.75;0.80;;;;;;;21.62;36.27;100058.25;5045613;27;97601;-67
2022/09/26 10:35:06;;;;;;;3.25;1.17;;;;;;;21.64;35.18;100050.06;5050157;27;96995;-67
2022/09/26 10:37:36;;;;;;;2.80;1.02;;;;;;;21.75;35.10;100056.13;5047026;27;99115;-68
2022/09/26 10:43:27;;;;;;;2.55;1.08;;;;;;;21.64;34.73;100047.38;5050017;27;96812;-67
2022/09/26 10:46:04;;;;;;;3.53;1.17;;;;;;;21.55;35.50;100046.38;5046176;27;96841;-67
2022/09/26 10:48:49;;;;;;;3.55;0.80;;;;;;;21.38;35.64;100045.25;5037704;27;98949;-68
2022/09/26 10:51:23;;;;;;;3.45;0.60;;;;;;;21.68;35.39;100041.56;5047432;27;99408;-67
2022/09/26 10:53:56;;;;;;;3.05;0.93;;;;;;;21.45;35.85;100035.63;5047583;27;97210;-69
2022/09/26 10:56:27;;;;;;;4.43;1.02;;;;;;;21.34;35.74;100048.31;5048978;27;97249;-68
2022/09/26 10:58:58;;;;;;;3.65;1.00;;;;;;;21.38;35.96;100047.06;5048767;27;98950;-68
2022/09/26 11:01:31;;;;;;;2.88;0.80;;;;;;;21.03;35.82;100037.66;5042001;27;99112;-68
2022/09/26 11:05:55;;;;;;;2.70;0.80;;;;;;;21.28;35.96;100033.63;5051588;27;96921;-68
2022/09/26 11:07:04;;;;;;;4.45;0.75;;;;;;;21.33;35.54;100038.59;5048720;27;96833;-68
2022/09/26 11:09:31;;;;;;;2.10;0.70;;;;;;;21.08;35.41;100043.44;5044251;27;100788;-69
2022/09/26 11:11:57;;;;;;;6.10;0.95;;;;;;;21.24;35.06;100028.66;5051253;27;98969;-68
2022/09/26 11:14:27;;;;;;;1.92;0.70;;;;;;;21.09;35.72;100034.41;5051268;27;98229;-69
2022/09/26 11:16:55;;;;;;;4.45;0.68;;;;;;;21.11;35.33;100031.59;5050523;27;97615;-69
2022/09/26 11:19:35;;;;;;;2.22;0.73;;;;;;;21.31;34.88;100017.22;5048203;27;98972;-69
2022/09/26 11:22:13;;;;;;;2.95;0.60;;;;;;;21.54;34.55;100017.78;5047685;27;98256;-69
2022/09/26 11:24:46;;;;;;;2.20;0.55;;;;;;;21.62;34.63;100020.63;5049082;27;97177;-70
2022/09/26 11:27:24;;;;;;;13.23;1.20;;;;;;;21.52;34.69;100019.78;5046346;27;96859;-69
2022/09/26 11:29:56;;;;;;;1.60;0.77;;;;;;;21.98;34.33;100012.84;5047665;27;99244;-69
2022/09/26 11:32:29;;;;;;;3.50;0.90;;;;;;;22.25;34.34;100010.22;5043285;27;97492;-69
2022/09/26 11:35:01;;;;;;;3.95;1.13;;;;;;;22.19;34.35;100002.69;5045415;27;96807;-70
2022/09/26 11:37:39;;;;;;;3.33;1.10;;;;;;;22.22;33.99;100005.13;5050229;27;97194;-69
2022/09/26 11:40:24;;;;;;;1.30;0.68;;;;;;;22.19;33.98;99997.31;5046676;27;98911;-68
2022/09/26 11:43:12;;;;;;;4.95;0.90;;;;;;;22.37;33.75;99990.19;5046857;27;98892;-68
2022/09/26 11:45:52;;;;;;;2.65;0.73;;;;;;;22.65;34.16;99994.59;5046623;27;96861;-69
2022/09/26 11:48:37;;;;;;;4.82;0.98;;;;;;;22.80;33.49;100002.19;5044370;27;97075;-70
2022/09/26 11:51:18;;;;;;;2.40;0.80;;;;;;;22.69;32.94;99987.06;5047235;27;98268;-69
2022/09/26 11:54:03;;;;;;;4.60;1.02;;;;;;;22.35;33.44;99981.41;5045549;27;99190;-69
2022/09/26 11:57:07;;;;;;;1.88;0.80;;;;;;;22.39;32.67;99971.19;5042759;27;97417;-70
2022/09/26 11:59:48;;;;;;;2.38;0.90;;;;;;;22.66;33.10;99973.88;5050894;27;96869;-69